createdAt,value
2023-02-27T00:01:35.249Z,0.30
2023-02-27T00:04:03.786Z,0.30
2023-02-27T00:06:32.070Z,0.30
2023-02-27T00:09:00.483Z,0.50
2023-02-27T00:11:29.045Z,0.40
2023-02-27T00:13:57.822Z,0.30
2023-02-27T00:16:27.344Z,0.40
2023-02-27T00:18:56.999Z,0.20
2023-02-27T00:21:25.778Z,0.30
2023-02-27T00:23:54.012Z,0.20
2023-02-27T00:26:22.149Z,0.10
2023-02-27T00:28:50.342Z,0.20
2023-02-27T00:31:18.509Z,0.10
2023-02-27T00:33:47.939Z,0.10
2023-02-27T00:36:16.282Z,0.20
2023-02-27T00:38:44.311Z,0.10
2023-02-27T00:41:12.347Z,0.10
2023-02-27T00:43:40.425Z,0.00
2023-02-27T00:46:09.203Z,-0.10
2023-02-27T00:48:37.508Z,0.10
2023-02-27T00:51:07.189Z,0.10
2023-02-27T00:53:35.203Z,-0.10
2023-02-27T00:56:03.267Z,0.10
2023-02-27T00:58:31.304Z,0.00
2023-02-27T01:01:01.052Z,0.10
2023-02-27T01:03:29.476Z,0.00
2023-02-27T01:05:58.626Z,-0.10
2023-02-27T01:08:28.033Z,-0.10
2023-02-27T01:10:56.802Z,-0.30
2023-02-27T01:13:25.163Z,-0.20
2023-02-27T01:15:53.651Z,0.00
2023-02-27T01:18:21.710Z,-0.30
2023-02-27T01:20:54.391Z,-0.40
2023-02-27T01:23:24.524Z,-0.40
2023-02-27T01:25:53.943Z,-0.50
2023-02-27T01:28:22.059Z,-0.40
2023-02-27T01:30:50.154Z,-0.40
2023-02-27T01:33:18.519Z,-0.30
2023-02-27T01:35:46.600Z,-0.20
2023-02-27T01:38:14.740Z,-0.30
2023-02-27T01:40:44.197Z,-0.60
2023-02-27T01:43:18.963Z,-0.50
2023-02-27T01:45:49.067Z,-0.70
2023-02-27T01:48:23.183Z,-0.90
2023-02-27T01:50:57.510Z,-0.70
2023-02-27T01:53:28.839Z,-0.90
2023-02-27T01:56:03.459Z,-0.90
2023-02-27T01:58:33.326Z,-0.90
2023-02-27T02:01:01.638Z,-0.90
2023-02-27T02:03:38.744Z,-0.80
2023-02-27T02:06:10.144Z,-0.80
2023-02-27T02:08:44.980Z,-0.90
2023-02-27T02:11:16.275Z,-0.70
2023-02-27T02:13:46.046Z,-0.70
2023-02-27T02:16:40.208Z,-0.80
2023-02-27T02:19:54.279Z,-0.80
2023-02-27T02:23:18.760Z,-0.70
2023-02-27T02:26:33.517Z,-0.70
2023-02-27T02:30:02.077Z,-0.70
2023-02-27T02:33:11.470Z,-0.70
2023-02-27T02:36:23.739Z,-0.60
2023-02-27T02:39:28.512Z,-0.60
2023-02-27T02:42:05.643Z,-0.70
2023-02-27T02:44:49.021Z,-0.70
2023-02-27T02:47:31.220Z,-0.80
2023-02-27T02:50:10.874Z,-0.80
2023-02-27T02:52:53.651Z,-0.80
2023-02-27T02:55:31.524Z,-0.80
2023-02-27T02:58:11.059Z,-0.90
2023-02-27T03:00:46.580Z,-0.80
2023-02-27T03:03:27.110Z,-0.80
2023-02-27T03:06:01.849Z,-0.80
2023-02-27T03:08:35.198Z,-0.80
2023-02-27T03:11:06.631Z,-0.80
2023-02-27T03:13:41.205Z,-0.90
2023-02-27T03:16:16.516Z,-0.90
2023-02-27T03:18:54.069Z,-0.80
2023-02-27T03:21:34.444Z,-0.90
2023-02-27T03:24:09.212Z,-1.00
2023-02-27T03:26:44.665Z,-0.90
2023-02-27T03:29:21.502Z,-0.90
2023-02-27T03:31:57.688Z,-0.90
2023-02-27T03:34:33.403Z,-1.00
2023-02-27T03:37:10.386Z,-1.10
2023-02-27T03:39:48.023Z,-1.00
2023-02-27T03:42:30.107Z,-1.00
2023-02-27T03:45:06.870Z,-1.00
2023-02-27T03:47:36.186Z,-1.10
2023-02-27T03:50:04.837Z,-1.10
2023-02-27T03:52:33.752Z,-1.10
2023-02-27T03:55:10.774Z,-1.10
2023-02-27T03:57:42.014Z,-1.10
2023-02-27T04:00:16.645Z,-1.10
2023-02-27T04:02:48.150Z,-1.10
2023-02-27T04:05:16.320Z,-1.10
2023-02-27T04:08:02.729Z,-1.30
2023-02-27T04:10:58.626Z,-1.30
2023-02-27T04:13:49.491Z,-1.30
2023-02-27T04:17:04.505Z,-1.30
2023-02-27T04:20:01.736Z,-1.50
2023-02-27T04:22:39.455Z,-1.40
2023-02-27T04:25:31.492Z,-1.50
2023-02-27T04:28:11.183Z,-1.60
2023-02-27T04:30:51.145Z,-1.60
2023-02-27T04:33:31.021Z,-1.50
2023-02-27T04:36:07.788Z,-1.60
2023-02-27T04:38:41.780Z,-1.60
2023-02-27T04:41:17.126Z,-1.50
2023-02-27T04:43:48.325Z,-1.60
2023-02-27T04:46:23.316Z,-1.70
2023-02-27T04:48:59.357Z,-1.70
2023-02-27T04:51:36.009Z,-1.60
2023-02-27T04:54:12.936Z,-1.50
2023-02-27T04:56:47.517Z,-1.50
2023-02-27T04:59:22.297Z,-1.70
2023-02-27T05:01:58.504Z,-1.80
2023-02-27T05:04:32.728Z,-1.90
2023-02-27T05:07:06.633Z,-1.90
2023-02-27T05:09:44.724Z,-1.80
2023-02-27T05:12:22.276Z,-1.80
2023-02-27T05:14:57.624Z,-1.90
2023-02-27T05:17:35.847Z,-1.80
2023-02-27T05:20:07.051Z,-1.70
2023-02-27T05:22:47.173Z,-1.60
2023-02-27T05:25:24.879Z,-1.70
2023-02-27T05:28:00.904Z,-1.90
2023-02-27T05:30:37.891Z,-2.00
2023-02-27T05:33:17.015Z,-1.90
2023-02-27T05:35:53.690Z,-2.00
2023-02-27T05:38:28.417Z,-1.80
2023-02-27T05:41:04.512Z,-1.70
2023-02-27T05:43:41.201Z,-1.80
2023-02-27T05:46:18.223Z,-1.80
2023-02-27T05:48:53.102Z,-1.80
2023-02-27T05:51:25.780Z,-1.70
2023-02-27T05:54:03.376Z,-1.70
2023-02-27T05:56:34.881Z,-1.70
2023-02-27T05:59:11.531Z,-1.70
2023-02-27T06:01:39.763Z,-1.60
2023-02-27T06:04:09.205Z,-1.60
2023-02-27T06:06:38.121Z,-1.60
2023-02-27T06:09:06.162Z,-1.60
2023-02-27T06:11:34.209Z,-1.50
2023-02-27T06:14:02.269Z,-1.50
2023-02-27T06:16:30.720Z,-1.50
2023-02-27T06:18:59.010Z,-1.50
2023-02-27T06:21:28.426Z,-1.40
2023-02-27T06:23:56.534Z,-1.40
2023-02-27T06:26:24.761Z,-1.40
2023-02-27T06:28:52.937Z,-1.30
2023-02-27T06:31:21.004Z,-1.30
2023-02-27T06:33:49.168Z,-1.30
2023-02-27T06:36:17.359Z,-1.30
2023-02-27T06:38:46.808Z,-1.20
2023-02-27T06:41:14.859Z,-1.20
2023-02-27T06:43:42.953Z,-1.20
2023-02-27T06:46:11.406Z,-1.10
2023-02-27T06:48:39.521Z,-1.10
2023-02-27T06:51:07.752Z,-1.10
2023-02-27T06:53:35.788Z,-1.20
2023-02-27T06:56:05.988Z,-1.10
2023-02-27T06:58:34.078Z,-1.10
2023-02-27T07:01:02.297Z,-1.10
2023-02-27T07:03:30.790Z,-0.90
2023-02-27T07:05:59.273Z,-1.00
2023-02-27T07:08:27.857Z,-1.00
2023-02-27T07:10:55.960Z,-0.90
2023-02-27T07:13:25.420Z,-0.90
2023-02-27T07:15:54.031Z,-0.90
2023-02-27T07:18:22.157Z,-0.80
2023-02-27T07:20:52.393Z,-0.80
2023-02-27T07:23:20.449Z,-0.90
2023-02-27T07:25:48.759Z,-0.80
2023-02-27T07:28:17.061Z,-0.80
2023-02-27T07:30:46.625Z,-0.80
2023-02-27T07:33:14.725Z,-0.80
2023-02-27T07:35:42.828Z,-0.80
2023-02-27T07:38:10.890Z,-0.80
2023-02-27T07:40:38.920Z,-0.80
2023-02-27T07:43:07.005Z,-0.70
2023-02-27T07:45:35.209Z,-0.60
2023-02-27T07:48:04.834Z,-0.60
2023-02-27T07:50:32.851Z,-0.70
2023-02-27T07:53:00.923Z,-0.60
2023-02-27T07:55:29.048Z,-0.60
2023-02-27T07:57:57.104Z,-0.60
2023-02-27T08:00:25.353Z,-0.60
2023-02-27T08:02:53.456Z,-0.50
2023-02-27T08:05:22.880Z,-0.40
2023-02-27T08:07:51.376Z,-0.40
2023-02-27T08:10:19.692Z,-0.40
2023-02-27T08:12:47.826Z,-0.40
2023-02-27T08:15:17.164Z,-0.30
2023-02-27T08:17:46.886Z,-0.20
2023-02-27T08:20:16.236Z,-0.10
2023-02-27T08:22:45.672Z,0.00
2023-02-27T08:25:13.726Z,0.10
2023-02-27T08:27:42.208Z,0.10
2023-02-27T08:30:13.681Z,0.30
2023-02-27T08:32:42.062Z,0.30
